Time;durP1;ratioP1;P1;durP2;ratioP2;P2;SDS_P1;SDS_P2;PMS_P1;PMS_P2;Temp;Humidity;BMP_temperature;BMP_pressure;BME280_temperature;BME280_humidity;BME280_pressure;Samples;Min_cycle;Max_cycle;Signal;HPM_P1;HPM_P2
2021/12/22 00:00:19;;;;;;;3.70;2.53;;;;;;;19.13;50.83;97221.28;10408959;28;20298;-20
2021/12/22 00:05:27;;;;;;;3.40;2.05;;;;;;;19.16;50.63;97226.41;10408962;28;20639;-21
2021/12/22 00:10:27;;;;;;;3.80;2.35;;;;;;;19.20;50.50;97228.13;10409565;28;20033;-21
2021/12/22 00:15:29;;;;;;;6.67;3.73;;;;;;;19.18;50.62;97224.72;10408279;28;20479;-21
2021/12/22 00:20:30;;;;;;;4.68;2.50;;;;;;;19.16;50.83;97231.47;10404026;28;20384;-21
2021/12/22 00:25:30;;;;;;;4.18;2.25;;;;;;;19.08;50.71;97220.44;10408149;28;20506;-21
2021/12/22 00:30:31;;;;;;;5.57;2.63;;;;;;;19.15;50.86;97234.84;10408236;28;20041;-21
2021/12/22 00:35:45;;;;;;;3.50;2.38;;;;;;;19.16;50.67;97242.47;10406266;28;20155;-21
2021/12/22 00:40:47;;;;;;;4.00;2.40;;;;;;;19.18;50.68;97245.03;10408353;28;20033;-21
2021/12/22 00:45:55;;;;;;;4.72;2.50;;;;;;;19.14;50.70;97244.16;10408306;28;20029;-20
2021/12/22 00:50:56;;;;;;;5.30;2.20;;;;;;;19.15;50.52;97234.84;10404601;28;20043;-21
2021/12/22 00:55:57;;;;;;;7.05;3.63;;;;;;;19.18;50.70;97239.94;10404109;28;20575;-21
2021/12/22 01:00:57;;;;;;;3.28;2.25;;;;;;;19.14;50.70;97233.13;10408308;28;20041;-21
2021/12/22 01:05:58;;;;;;;3.88;2.38;;;;;;;19.20;50.67;97238.28;10406036;28;20502;-21
2021/12/22 01:10:58;;;;;;;5.63;2.40;;;;;;;19.19;50.46;97234.88;10407739;28;20036;-21
2021/12/22 01:15:59;;;;;;;2.30;2.10;;;;;;;19.18;50.75;97234.88;10405851;28;20087;-21
2021/12/22 01:21:19;;;;;;;4.03;2.15;;;;;;;19.14;50.73;97221.31;10403555;28;20496;-21
2021/12/22 01:26:19;;;;;;;5.07;2.30;;;;;;;19.15;50.57;97224.69;10406606;28;20068;-20
2021/12/22 01:31:20;;;;;;;2.75;2.33;;;;;;;19.19;50.43;97221.38;10402840;28;20056;-21
2021/12/22 01:36:20;;;;;;;4.55;1.95;;;;;;;19.17;50.48;97228.09;10405098;28;20396;-21
2021/12/22 01:41:21;;;;;;;2.30;2.10;;;;;;;19.12;50.49;97224.69;10403799;28;20037;-21
2021/12/22 01:49:09;;;;;;;3.27;2.20;;;;;;;19.15;50.55;97232.28;10401582;28;20300;-21
2021/12/22 01:52:02;;;;;;;2.25;2.00;;;;;;;19.19;50.49;97234.88;10402424;28;20307;-21
2021/12/22 01:57:08;;;;;;;4.35;1.75;;;;;;;19.18;50.47;97222.19;10404406;28;20043;-21
2021/12/22 02:02:12;;;;;;;9.82;3.35;;;;;;;19.11;50.60;97222.97;10404938;28;20045;-21
2021/12/22 02:07:14;;;;;;;3.25;2.10;;;;;;;19.19;50.50;97232.34;10404934;28;20052;-21
2021/12/22 02:12:15;;;;;;;3.67;2.22;;;;;;;19.13;50.65;97227.22;10401531;28;20461;-21
2021/12/22 02:17:15;;;;;;;3.33;2.08;;;;;;;19.14;50.75;97220.44;10402545;28;20041;-20
2021/12/22 02:22:17;;;;;;;3.30;2.53;;;;;;;19.18;50.59;97222.19;10404644;28;20396;-21
2021/12/22 02:27:44;;;;;;;3.60;2.10;;;;;;;19.10;50.59;97195.91;10402651;28;20056;-21
2021/12/22 02:37:54;;;;;;;3.67;2.08;;;;;;;19.18;50.49;97201.88;10404904;28;20037;-21
2021/12/22 02:43:04;;;;;;;2.40;1.70;;;;;;;19.22;50.45;97223.91;10405623;28;20037;-21
2021/12/22 02:48:05;;;;;;;2.65;2.03;;;;;;;19.17;50.62;97223.03;10409069;28;20474;-21
2021/12/22 02:53:10;;;;;;;5.13;2.90;;;;;;;19.15;50.61;97224.69;10412741;28;20037;-21
2021/12/22 02:58:19;;;;;;;5.53;2.20;;;;;;;19.13;50.55;97223.84;10411215;28;20124;-21
2021/12/22 03:08:29;;;;;;;3.97;2.15;;;;;;;19.09;50.68;97232.28;10411152;28;20042;-21
2021/12/22 03:13:32;;;;;;;3.97;2.00;;;;;;;19.10;50.83;97226.38;10410367;28;20514;-21
2021/12/22 03:18:33;;;;;;;4.32;1.58;;;;;;;19.07;50.80;97232.25;10407984;28;20044;-21
2021/12/22 03:23:33;;;;;;;3.40;2.10;;;;;;;19.08;50.99;97240.75;10411311;28;20030;-21
2021/12/22 03:28:33;;;;;;;2.50;1.73;;;;;;;19.10;50.57;97236.53;10405064;28;20033;-21
2021/12/22 03:33:34;;;;;;;4.77;2.07;;;;;;;19.13;50.60;97241.59;10408964;28;20099;-21
2021/12/22 03:38:35;;;;;;;4.47;2.20;;;;;;;19.12;50.22;97238.22;10410744;28;20491;-21
2021/12/22 03:43:36;;;;;;;2.95;1.95;;;;;;;19.12;50.48;97243.31;10405807;28;20466;-22
2021/12/22 03:48:37;;;;;;;3.28;1.95;;;;;;;19.13;50.58;97242.47;10406513;28;20041;-21
2021/12/22 03:53:37;;;;;;;3.67;2.03;;;;;;;18.85;50.73;97199.97;10410404;28;20116;-20
2021/12/22 03:58:37;;;;;;;4.25;2.08;;;;;;;19.09;50.73;97247.50;10408393;28;20040;-21
2021/12/22 04:03:40;;;;;;;4.15;1.90;;;;;;;19.09;50.73;97242.44;10408651;28;20045;-21
2021/12/22 04:08:40;;;;;;;2.97;1.90;;;;;;;19.11;50.53;97239.06;10409724;28;20443;-21
2021/12/22 04:13:41;;;;;;;3.67;2.00;;;;;;;19.12;50.60;97237.38;10408040;28;20092;-21
2021/12/22 04:18:41;;;;;;;3.17;1.98;;;;;;;19.12;50.59;97237.38;10406333;28;20295;-21
2021/12/22 04:23:42;;;;;;;2.08;1.75;;;;;;;19.09;50.57;97239.91;10409252;28;20518;-21
2021/12/22 04:28:42;;;;;;;5.07;1.90;;;;;;;19.12;50.43;97239.91;10404169;28;20033;-21
2021/12/22 04:33:43;;;;;;;2.00;1.45;;;;;;;19.12;50.41;97239.91;10406748;28;20320;-21
2021/12/22 04:38:43;;;;;;;2.67;2.15;;;;;;;19.10;50.42;97237.34;10408443;28;20566;-21
2021/12/22 04:43:44;;;;;;;6.07;1.73;;;;;;;19.09;50.46;97219.59;10406730;28;20029;-21
2021/12/22 04:48:44;;;;;;;4.47;2.03;;;;;;;19.08;50.25;97218.72;10399403;28;20322;-21
2021/12/22 04:54:03;;;;;;;1.97;1.40;;;;;;;19.08;50.48;97212.81;10401841;28;20298;-21
2021/12/22 04:59:03;;;;;;;2.55;1.52;;;;;;;19.09;50.45;97199.28;10400644;28;20026;-21
2021/12/22 05:04:03;;;;;;;3.90;1.83;;;;;;;19.13;50.27;97208.59;10405739;28;20041;-21
2021/12/22 05:09:05;;;;;;;2.08;1.60;;;;;;;19.15;50.31;97205.25;10404682;28;20099;-21
2021/12/22 05:14:08;;;;;;;2.80;1.38;;;;;;;19.13;50.10;97206.06;10402098;28;20484;-21
2021/12/22 05:19:14;;;;;;;1.70;1.40;;;;;;;19.19;49.98;97208.69;10397530;28;20034;-22
2021/12/22 05:24:15;;;;;;;2.38;2.05;;;;;;;19.23;49.90;97207.84;10396080;28;20033;-21
2021/12/22 05:29:16;;;;;;;3.60;1.40;;;;;;;19.24;49.75;97219.72;10398408;28;20041;-21
2021/12/22 05:34:16;;;;;;;4.45;1.70;;;;;;;19.24;49.78;97219.72;10397558;28;20413;-21
2021/12/22 05:39:17;;;;;;;2.97;1.67;;;;;;;19.25;49.55;97226.50;10398135;28;20034;-21
2021/12/22 05:44:17;;;;;;;3.03;1.90;;;;;;;19.28;49.31;97224.81;10392319;28;20094;-21
2021/12/22 05:49:18;;;;;;;3.17;2.43;;;;;;;19.22;49.04;97221.38;10389880;28;20539;-21
2021/12/22 05:54:18;;;;;;;2.85;2.20;;;;;;;19.19;48.91;97222.19;10384687;28;20478;-21
2021/12/22 05:59:19;;;;;;;10.53;2.73;;;;;;;19.12;48.74;97217.06;10398567;28;20029;-22
2021/12/22 06:04:19;;;;;;;6.85;6.15;;;;;;;17.70;43.44;97216.69;10394896;28;20363;-21
2021/12/22 06:09:19;;;;;;;5.23;4.10;;;;;;;18.68;46.08;97221.03;10390692;28;20037;-21
2021/12/22 06:14:20;;;;;;;8.80;4.50;;;;;;;18.94;44.44;97224.56;10398606;28;20037;-21
2021/12/22 06:19:21;;;;;;;8.30;3.65;;;;;;;19.06;45.24;97222.09;10399404;28;20112;-21
2021/12/22 06:24:22;;;;;;;8.82;4.53;;;;;;;19.08;45.36;97228.88;10403729;28;20675;-22
2021/12/22 06:29:22;;;;;;;10.17;5.03;;;;;;;18.80;43.32;97237.19;10400952;28;20038;-22
2021/12/22 06:34:22;;;;;;;15.60;4.27;;;;;;;19.06;45.66;97237.31;10406945;28;20300;-21
2021/12/22 06:39:23;;;;;;;28.23;9.80;;;;;;;17.87;37.54;97251.53;10409134;28;20318;-21
2021/12/22 06:44:24;;;;;;;9.85;4.35;;;;;;;18.22;45.27;97244.25;10400293;28;20092;-21
2021/12/22 06:49:24;;;;;;;8.90;3.80;;;;;;;18.62;45.31;97246.31;10402644;28;20056;-21
2021/12/22 06:54:24;;;;;;;10.95;3.40;;;;;;;18.75;45.54;97237.97;10404858;28;20046;-22
2021/12/22 06:59:25;;;;;;;3.63;3.13;;;;;;;18.85;45.89;97239.75;10404883;28;20046;-22
2021/12/22 07:04:26;;;;;;;8.15;3.22;;;;;;;18.89;45.94;97233.84;10406504;28;20025;-21
2021/12/22 07:09:26;;;;;;;5.50;3.10;;;;;;;18.91;45.96;97232.19;10407116;28;20041;-22
2021/12/22 07:14:26;;;;;;;7.28;3.30;;;;;;;18.94;45.56;97240.66;10406748;28;20041;-21
2021/12/22 07:19:27;;;;;;;9.10;3.80;;;;;;;18.96;45.39;97258.41;10401308;28;20041;-21
2021/12/22 07:24:27;;;;;;;5.30;2.85;;;;;;;18.99;45.29;97268.59;10407016;28;20029;-22
2021/12/22 07:29:28;;;;;;;6.40;3.00;;;;;;;19.01;45.50;97272.00;10404378;28;20664;-21
2021/12/22 07:34:38;;;;;;;8.07;3.10;;;;;;;19.02;45.38;97278.75;10403414;28;20516;-21
2021/12/22 07:39:38;;;;;;;4.35;3.33;;;;;;;19.00;45.28;97272.84;10405608;28;20280;-21
2021/12/22 07:44:39;;;;;;;10.00;3.27;;;;;;;19.01;45.85;97272.00;10404120;28;20033;-21
2021/12/22 07:49:39;;;;;;;61.83;9.75;;;;;;;18.97;46.06;97278.72;10399215;28;20132;-21
2021/12/22 07:54:40;;;;;;;81.10;8.13;;;;;;;18.89;46.37;97280.38;10403096;28;20167;-21
2021/12/22 07:59:40;;;;;;;77.63;7.68;;;;;;;18.83;46.53;97285.38;10401979;28;20496;-21
2021/12/22 08:04:41;;;;;;;70.30;7.97;;;;;;;18.87;46.25;97278.66;10398244;28;20526;-22
2021/12/22 08:09:41;;;;;;;52.38;7.07;;;;;;;18.90;45.98;97271.91;10403309;28;20292;-22
2021/12/22 08:14:42;;;;;;;43.87;5.60;;;;;;;18.85;44.88;97265.94;10403143;28;20033;-21
2021/12/22 08:19:43;;;;;;;42.13;5.20;;;;;;;18.95;45.05;97261.78;10404663;28;20522;-21
2021/12/22 08:24:43;;;;;;;32.50;5.18;;;;;;;18.98;43.65;97256.72;10409084;28;20614;-22
2021/12/22 08:29:44;;;;;;;20.30;4.27;;;;;;;19.02;45.55;97254.22;10407709;28;20043;-21
2021/12/22 08:34:47;;;;;;;27.17;4.65;;;;;;;19.04;45.84;97261.84;10406118;28;20052;-21
2021/12/22 08:39:48;;;;;;;18.60;3.60;;;;;;;19.03;46.22;97265.22;10408282;28;20068;-22
2021/12/22 08:44:49;;;;;;;19.67;4.35;;;;;;;19.02;46.02;97268.63;10403412;28;20124;-21
2021/12/22 08:49:49;;;;;;;22.70;4.63;;;;;;;18.94;45.94;97255.88;10405304;28;20403;-21
2021/12/22 08:54:50;;;;;;;17.95;3.88;;;;;;;19.04;46.16;97259.31;10407763;28;20108;-22
2021/12/22 08:59:51;;;;;;;12.70;2.95;;;;;;;18.99;46.14;97254.22;10403632;28;20087;-22
2021/12/22 09:04:51;;;;;;;19.80;3.35;;;;;;;19.00;46.27;97252.53;10406823;28;20035;-22
2021/12/22 09:09:52;;;;;;;9.37;2.97;;;;;;;18.96;46.22;97233.03;10407183;28;20488;-22
2021/12/22 09:14:52;;;;;;;17.67;3.30;;;;;;;19.01;46.36;97246.63;10405484;28;20041;-22
2021/12/22 09:19:53;;;;;;;9.87;2.90;;;;;;;19.03;46.37;97244.94;10403990;28;20056;-22
2021/12/22 09:24:53;;;;;;;7.72;2.50;;;;;;;19.03;46.71;97247.47;10405927;28;20346;-21
2021/12/22 09:29:54;;;;;;;14.50;3.53;;;;;;;19.03;46.51;97261.03;10406032;28;20047;-22
2021/12/22 09:34:55;;;;;;;7.05;2.90;;;;;;;19.05;46.47;97259.34;10402768;28;20052;-22
2021/12/22 09:39:56;;;;;;;22.63;2.70;;;;;;;19.05;46.61;97266.94;10406951;28;20033;-21
2021/12/22 09:45:00;;;;;;;4.57;2.13;;;;;;;19.07;46.46;97266.94;10403011;28;20033;-22
2021/12/22 09:50:11;;;;;;;5.97;2.58;;;;;;;19.04;46.50;97261.84;10402827;28;20128;-21
2021/12/22 09:55:12;;;;;;;5.80;2.17;;;;;;;19.05;46.56;97248.31;10404505;28;20061;-21
2021/12/22 10:00:12;;;;;;;7.53;2.30;;;;;;;19.02;46.82;97253.38;10407033;28;20056;-21
2021/12/22 10:05:15;;;;;;;6.75;2.15;;;;;;;19.01;46.79;97247.44;10404091;28;20292;-21
2021/12/22 10:10:16;;;;;;;8.17;2.23;;;;;;;19.05;46.86;97240.69;10405571;28;20029;-21
2021/12/22 10:15:16;;;;;;;8.97;2.97;;;;;;;18.98;46.73;97236.44;10404349;28;20033;-21
2021/12/22 10:20:20;;;;;;;5.87;2.37;;;;;;;19.03;46.84;97242.41;10402590;28;20288;-21
2021/12/22 10:25:23;;;;;;;7.15;2.20;;;;;;;19.04;46.71;97231.41;10403243;28;20379;-22
2021/12/22 10:30:26;;;;;;;6.72;2.42;;;;;;;19.03;46.78;97227.16;10403867;28;20431;-22
2021/12/22 10:35:34;;;;;;;5.65;2.05;;;;;;;19.02;46.78;97230.53;10402871;28;20064;-22
2021/12/22 10:40:38;;;;;;;2.90;2.05;;;;;;;19.02;46.90;97222.94;10405397;28;20558;-22
2021/12/22 10:45:39;;;;;;;5.32;1.70;;;;;;;19.01;46.81;97211.09;10402932;28;20039;-21
2021/12/22 10:50:40;;;;;;;6.15;2.67;;;;;;;19.07;46.94;97214.50;10401444;28;20037;-22
2021/12/22 10:55:44;;;;;;;3.10;1.98;;;;;;;19.09;46.79;97206.91;10404066;28;20034;-21
2021/12/22 11:00:58;;;;;;;5.40;2.03;;;;;;;19.08;47.04;97187.44;10402149;28;20036;-21
2021/12/22 11:06:01;;;;;;;4.05;2.00;;;;;;;19.04;47.32;97170.50;10410486;28;20037;-22
2021/12/22 11:11:13;;;;;;;9.48;2.15;;;;;;;19.06;46.79;97168.81;10410047;28;20037;-22
2021/12/22 11:16:14;;;;;;;8.68;3.42;;;;;;;18.71;44.66;97170.31;10411267;28;20053;-22
2021/12/22 11:21:28;;;;;;;8.60;1.90;;;;;;;18.99;48.42;97156.94;10408225;28;20124;-22
2021/12/22 11:26:29;;;;;;;4.95;1.95;;;;;;;19.00;48.96;97149.31;10409600;28;20041;-22
2021/12/22 11:31:30;;;;;;;2.22;1.60;;;;;;;19.07;49.26;97140.91;10411362;28;20037;-21
2021/12/22 11:36:30;;;;;;;8.85;2.10;;;;;;;19.15;49.10;97138.38;10408349;28;20061;-21
2021/12/22 11:41:31;;;;;;;9.63;1.83;;;;;;;19.17;49.82;97134.19;10409492;28;20036;-22
2021/12/22 11:46:32;;;;;;;10.65;2.67;;;;;;;19.18;49.43;97130.81;10407133;28;20064;-21
2021/12/22 11:51:34;;;;;;;12.50;2.78;;;;;;;19.13;50.16;97119.78;10406516;28;20094;-21
2021/12/22 11:56:46;;;;;;;14.75;2.75;;;;;;;19.14;50.51;97121.47;10410267;28;20095;-21
2021/12/22 12:02:22;;;;;;;7.25;2.90;;;;;;;19.10;50.84;97110.44;10408896;28;20037;-22
2021/12/22 12:07:43;;;;;;;13.13;2.60;;;;;;;19.12;50.44;97110.47;10409957;28;20504;-22
2021/12/22 12:12:48;;;;;;;13.20;3.08;;;;;;;19.23;50.37;97113.91;10406859;28;20038;-22
2021/12/22 12:23:35;;;;;;;20.48;6.95;;;;;;;18.60;42.27;97106.00;10409178;28;20044;-21
2021/12/22 12:28:47;;;;;;;17.15;6.15;;;;;;;18.88;44.24;97100.22;10398239;28;20052;-21
2021/12/22 12:33:49;;;;;;;10.05;2.92;;;;;;;19.19;49.65;97097.81;10406295;28;20024;-21
2021/12/22 12:38:55;;;;;;;5.78;2.40;;;;;;;19.35;49.09;97099.56;10408600;28;20519;-20
2021/12/22 12:44:01;;;;;;;6.70;2.57;;;;;;;19.45;49.01;97093.69;10403066;28;20048;-21
2021/12/22 12:49:08;;;;;;;;;;;;;;;19.43;49.35;97079.28;10405167;28;20049;-21
2021/12/22 12:54:25;;;;;;;19.40;3.53;;;;;;;19.37;50.23;97079.25;10408291;28;19917;-21
2021/12/22 12:59:38;;;;;;;13.52;3.00;;;;;;;19.26;50.44;97066.53;10403142;28;20541;-22
2021/12/22 13:04:43;;;;;;;11.75;3.63;;;;;;;19.24;50.88;97070.78;10406719;28;20051;-21
2021/12/22 13:09:46;;;;;;;11.43;6.47;;;;;;;18.44;44.34;97061.09;10407912;28;20403;-21
2021/12/22 13:20:12;;;;;;;12.25;4.10;;;;;;;19.01;48.03;97071.53;10403239;28;20037;-21
2021/12/22 13:25:21;;;;;;;8.75;3.08;;;;;;;19.05;48.60;97060.53;10407155;28;20129;-21
2021/12/22 13:30:30;;;;;;;10.60;2.75;;;;;;;19.02;48.58;97058.81;10404618;28;20048;-23
2021/12/22 13:35:43;;;;;;;13.15;3.50;;;;;;;19.08;49.08;97068.16;10405134;28;20060;-22
2021/12/22 13:40:49;;;;;;;7.93;2.10;;;;;;;19.09;49.35;97067.31;10406204;28;20509;-21
2021/12/22 13:45:52;;;;;;;6.05;2.33;;;;;;;19.11;49.56;97066.50;10402272;28;20108;-21
2021/12/22 13:50:56;;;;;;;8.63;2.85;;;;;;;19.13;49.79;97062.25;10402573;28;20045;-22
2021/12/22 13:55:58;;;;;;;4.85;2.17;;;;;;;19.12;50.14;97063.09;10405846;28;20471;-21
2021/12/22 14:01:23;;;;;;;4.78;2.35;;;;;;;19.14;50.39;97065.63;10403390;28;20045;-21
2021/12/22 14:06:34;;;;;;;6.70;2.40;;;;;;;19.11;50.60;97063.94;10400403;28;20044;-22
2021/12/22 14:11:37;;;;;;;6.28;2.00;;;;;;;19.13;50.46;97064.78;10402752;28;20072;-22
2021/12/22 14:16:37;;;;;;;7.70;2.17;;;;;;;19.14;50.77;97063.09;10405383;28;20064;-22
2021/12/22 14:21:38;;;;;;;8.50;2.07;;;;;;;19.15;50.48;97057.16;10401646;28;20567;-22
2021/12/22 14:26:48;;;;;;;4.43;1.73;;;;;;;19.14;50.50;97055.47;10402089;28;20300;-22
2021/12/22 14:32:03;;;;;;;4.15;2.10;;;;;;;19.13;50.56;97063.94;10405184;28;20620;-21
2021/12/22 14:37:04;;;;;;;3.40;1.80;;;;;;;19.14;50.51;97055.47;10405510;28;20057;-21
2021/12/22 14:42:25;;;;;;;5.23;1.67;;;;;;;19.13;50.68;97048.69;10409469;28;20112;-22
2021/12/22 14:47:25;;;;;;;3.30;1.80;;;;;;;19.13;50.52;97048.69;10407922;28;20388;-21
2021/12/22 14:52:26;;;;;;;3.80;1.97;;;;;;;19.13;50.45;97046.16;10413218;28;20181;-22
2021/12/22 14:57:29;;;;;;;2.97;2.00;;;;;;;19.11;50.72;97040.25;10411722;28;20403;-21
2021/12/22 15:02:29;;;;;;;4.35;1.70;;;;;;;19.13;50.07;97048.69;10411614;28;20284;-22
2021/12/22 15:07:30;;;;;;;3.67;1.80;;;;;;;19.13;50.53;97046.16;10413172;28;20483;-22
2021/12/22 15:12:30;;;;;;;2.83;1.87;;;;;;;19.12;50.63;97049.56;10408373;28;20470;-21
2021/12/22 15:17:30;;;;;;;2.70;1.70;;;;;;;19.12;50.80;97058.03;10409045;28;20346;-22
2021/12/22 15:22:31;;;;;;;3.70;1.70;;;;;;;19.10;50.47;97053.78;10411783;28;20038;-22
2021/12/22 15:27:31;;;;;;;3.60;1.73;;;;;;;19.12;50.67;97054.63;10405745;28;20046;-21
2021/12/22 15:32:32;;;;;;;2.63;1.58;;;;;;;19.13;50.63;97062.25;10410231;28;20033;-21
2021/12/22 15:37:32;;;;;;;2.10;1.48;;;;;;;19.05;50.88;97063.06;10411204;28;20125;-22
2021/12/22 15:42:33;;;;;;;1.85;1.60;;;;;;;19.10;50.69;97069.00;10406844;28;20041;-22
2021/12/22 15:47:35;;;;;;;1.95;1.40;;;;;;;19.12;50.65;97062.25;10406785;28;20034;-22
2021/12/22 15:52:36;;;;;;;3.08;1.95;;;;;;;19.12;50.59;97062.25;10410399;28;20072;-21
2021/12/22 15:57:37;;;;;;;3.42;2.20;;;;;;;19.14;50.36;97070.69;10409744;28;20103;-21
2021/12/22 16:02:37;;;;;;;3.22;1.83;;;;;;;19.13;50.40;97074.09;10408831;28;20029;-22
2021/12/22 16:07:38;;;;;;;2.40;1.70;;;;;;;19.10;50.66;97076.63;10410403;28;20040;-21
2021/12/22 16:12:39;;;;;;;4.78;1.60;;;;;;;19.13;50.37;97074.09;10406976;28;20299;-23
2021/12/22 16:17:41;;;;;;;3.22;1.70;;;;;;;19.12;50.45;97077.47;10407102;28;20037;-22
2021/12/22 16:22:41;;;;;;;2.80;1.58;;;;;;;19.15;50.50;97068.19;10409657;28;20099;-22
2021/12/22 16:27:42;;;;;;;3.43;1.83;;;;;;;19.13;50.41;97069.88;10408219;28;20561;-22
2021/12/22 16:32:42;;;;;;;4.10;1.73;;;;;;;19.14;50.31;97068.16;10407534;28;20469;-21
2021/12/22 16:37:43;;;;;;;2.90;2.00;;;;;;;19.14;50.10;97060.56;10409160;28;20562;-22
2021/12/22 16:42:44;;;;;;;2.80;1.70;;;;;;;19.10;50.43;97067.31;10407614;28;20052;-22
2021/12/22 16:47:50;;;;;;;1.98;1.52;;;;;;;18.89;50.12;97020.72;10405193;28;20073;-21
2021/12/22 16:52:52;;;;;;;5.30;2.67;;;;;;;19.15;50.15;97044.47;10408377;28;20471;-22
2021/12/22 16:57:52;;;;;;;3.83;1.88;;;;;;;19.14;50.11;97040.25;10406940;28;20041;-22
2021/12/22 17:02:53;;;;;;;2.15;1.23;;;;;;;19.17;50.24;97047.88;10406432;28;20607;-22
2021/12/22 17:07:53;;;;;;;2.40;1.90;;;;;;;19.16;49.91;97049.56;10407955;28;20436;-21
2021/12/22 17:12:54;;;;;;;2.88;1.55;;;;;;;19.14;50.24;97035.16;10405107;28;20107;-22
2021/12/22 17:17:54;;;;;;;2.33;1.58;;;;;;;19.11;50.19;97033.50;10403805;28;20033;-21
2021/12/22 17:22:54;;;;;;;2.58;1.70;;;;;;;19.14;50.04;97035.16;10407145;28;20120;-21
2021/12/22 17:27:55;;;;;;;2.53;2.20;;;;;;;19.15;50.38;97032.66;10402631;28;20092;-22
2021/12/22 17:32:59;;;;;;;2.05;1.58;;;;;;;19.16;50.17;97033.50;10406283;28;20025;-22
2021/12/22 17:38:00;;;;;;;1.92;1.60;;;;;;;19.15;50.28;97036.84;10407044;28;20053;-22
2021/12/22 17:43:00;;;;;;;1.83;1.40;;;;;;;19.13;50.55;97033.47;10404740;28;20112;-22
2021/12/22 17:48:01;;;;;;;4.30;2.00;;;;;;;19.11;50.31;97025.03;10403207;28;20038;-22
2021/12/22 17:53:01;;;;;;;2.73;2.13;;;;;;;19.10;50.42;97008.09;10405828;28;20280;-22
2021/12/22 17:58:12;;;;;;;1.58;1.48;;;;;;;19.06;50.39;96998.78;10403868;28;20030;-22
2021/12/22 18:03:13;;;;;;;1.70;1.50;;;;;;;19.12;50.31;97006.41;10403712;28;20044;-22
2021/12/22 18:08:13;;;;;;;3.15;1.88;;;;;;;19.13;50.40;97000.47;10406133;28;20466;-22
2021/12/22 18:13:14;;;;;;;1.63;1.43;;;;;;;19.12;50.35;96986.97;10401398;28;20056;-21
2021/12/22 18:18:14;;;;;;;2.05;1.35;;;;;;;19.16;49.96;96978.50;10402664;28;20303;-22
2021/12/22 18:23:15;;;;;;;2.03;1.67;;;;;;;19.16;50.33;96982.75;10405385;28;20084;-22
2021/12/22 18:28:15;;;;;;;1.70;1.60;;;;;;;19.11;50.03;96977.66;10403479;28;20450;-22
2021/12/22 18:33:16;;;;;;;1.60;1.50;;;;;;;19.13;49.96;96980.19;10402771;28;20037;-22
2021/12/22 18:38:21;;;;;;;1.92;1.35;;;;;;;19.14;49.72;96981.88;10405506;28;20375;-22
2021/12/22 18:43:24;;;;;;;1.35;1.20;;;;;;;19.15;50.24;96986.09;10401604;28;20085;-22
2021/12/22 18:48:27;;;;;;;2.00;1.40;;;;;;;19.16;50.02;96993.72;10401876;28;20033;-22
2021/12/22 18:53:28;;;;;;;1.95;1.23;;;;;;;19.14;50.12;96989.47;10405048;28;20068;-22
2021/12/22 18:58:29;;;;;;;1.88;1.40;;;;;;;19.13;50.03;96981.03;10401906;28;20049;-22
2021/12/22 19:03:29;;;;;;;2.00;1.30;;;;;;;19.09;50.06;96986.09;10392671;28;20117;-22
2021/12/22 19:08:30;;;;;;;1.77;1.55;;;;;;;19.05;50.40;96989.47;10399512;28;20044;-22
2021/12/22 19:13:30;;;;;;;2.30;1.87;;;;;;;19.08;50.51;96969.19;10396584;28;20056;-22
2021/12/22 19:18:31;;;;;;;1.63;1.40;;;;;;;19.03;50.64;96958.19;10397041;28;20403;-22
2021/12/22 19:23:31;;;;;;;3.10;1.30;;;;;;;19.04;50.64;96952.25;10409305;28;20120;-22
2021/12/22 19:28:32;;;;;;;3.15;1.83;;;;;;;19.02;50.60;96942.09;10404027;28;20080;-22
2021/12/22 19:33:34;;;;;;;2.33;1.58;;;;;;;19.01;50.67;96937.88;10405567;28;20060;-22
2021/12/22 19:38:34;;;;;;;2.53;1.45;;;;;;;19.04;50.61;96937.03;10407821;28;20025;-22
2021/12/22 19:43:36;;;;;;;1.25;1.00;;;;;;;19.06;50.57;96922.63;10401346;28;20042;-22
2021/12/22 19:48:37;;;;;;;1.50;1.40;;;;;;;19.04;50.61;96921.81;10402520;28;20072;-22
2021/12/22 19:53:37;;;;;;;2.40;1.55;;;;;;;19.01;50.87;96922.63;10406325;28;20068;-22
2021/12/22 19:58:38;;;;;;;1.55;1.42;;;;;;;19.00;50.76;96920.13;10393547;28;20459;-22
2021/12/22 20:03:44;;;;;;;1.88;1.30;;;;;;;19.03;50.59;96920.13;10405033;28;20523;-22
2021/12/22 20:08:45;;;;;;;;;;;;;;;19.03;50.90;96917.56;10407594;28;20174;-22
2021/12/22 20:13:46;;;;;;;2.53;1.60;;;;;;;19.07;50.41;96914.19;10404873;28;20290;-22
2021/12/22 20:18:51;;;;;;;2.85;1.90;;;;;;;19.08;50.36;96903.22;10399049;28;20570;-23
2021/12/22 20:23:52;;;;;;;2.20;1.40;;;;;;;19.12;50.38;96909.97;10399903;28;20033;-21
2021/12/22 20:28:52;;;;;;;2.23;1.90;;;;;;;19.13;50.29;96915.06;10405014;28;20049;-23
2021/12/22 20:33:52;;;;;;;1.77;1.33;;;;;;;19.10;50.30;96919.28;10401916;28;20665;-23
2021/12/22 20:38:53;;;;;;;2.90;1.50;;;;;;;19.10;50.34;96924.34;10397035;28;20029;-23
2021/12/22 20:43:53;;;;;;;6.22;2.22;;;;;;;19.09;49.29;96925.22;10395798;28;20040;-23
2021/12/22 20:48:54;;;;;;;3.67;2.43;;;;;;;18.91;48.06;96899.81;10394485;28;20041;-23
2021/12/22 20:53:56;;;;;;;6.10;1.77;;;;;;;19.13;49.24;96929.41;10396156;28;20292;-23
2021/12/22 20:58:56;;;;;;;3.08;1.60;;;;;;;19.12;49.66;96935.34;10400293;28;20107;-23
2021/12/22 21:03:57;;;;;;;2.00;1.63;;;;;;;19.14;49.67;96933.66;10398029;28;20087;-23
2021/12/22 21:08:57;;;;;;;1.90;1.40;;;;;;;19.15;49.66;96922.66;10409624;28;20549;-23
2021/12/22 21:13:57;;;;;;;1.40;1.30;;;;;;;19.13;49.63;96922.66;10404006;28;20037;-23
2021/12/22 21:18:58;;;;;;;2.23;1.43;;;;;;;19.16;49.65;96927.72;10406235;28;20287;-23
2021/12/22 21:23:58;;;;;;;1.83;1.33;;;;;;;19.18;49.60;96930.28;10408865;28;20049;-22
2021/12/22 21:29:00;;;;;;;2.67;2.27;;;;;;;19.14;49.72;96923.50;10406927;28;20506;-23
2021/12/22 21:34:00;;;;;;;2.30;1.80;;;;;;;19.17;49.76;96919.28;10407903;28;20774;-23
2021/12/22 21:39:02;;;;;;;1.70;1.40;;;;;;;19.13;49.92;96921.81;10408789;28;20033;-23
2021/12/22 21:44:04;;;;;;;2.50;1.42;;;;;;;19.12;49.97;96917.59;10402037;28;20033;-23
2021/12/22 21:49:04;;;;;;;4.53;1.63;;;;;;;19.12;49.81;96920.13;10400343;28;20435;-23
2021/12/22 21:54:05;;;;;;;6.38;1.60;;;;;;;19.06;50.00;96915.03;10407895;28;20038;-23
2021/12/22 21:59:05;;;;;;;4.45;1.67;;;;;;;19.14;49.93;96928.56;10404965;28;20029;-23
2021/12/22 22:04:06;;;;;;;2.72;1.40;;;;;;;19.11;50.06;96928.59;10406094;28;20033;-23
2021/12/22 22:09:06;;;;;;;2.72;1.40;;;;;;;19.09;50.16;96935.34;10401985;28;20072;-23
2021/12/22 22:14:07;;;;;;;2.88;1.85;;;;;;;19.05;49.88;96934.50;10402699;28;20059;-23
2021/12/22 22:19:08;;;;;;;1.90;1.02;;;;;;;19.03;50.17;96932.81;10404679;28;20029;-23
2021/12/22 22:24:11;;;;;;;2.00;1.60;;;;;;;19.05;50.11;96920.94;10407917;28;20385;-24
2021/12/22 22:29:11;;;;;;;3.35;1.23;;;;;;;19.04;50.10;96924.34;10403178;28;20025;-23
2021/12/22 22:34:12;;;;;;;3.00;1.10;;;;;;;19.06;50.04;96927.72;10406340;28;20094;-23
2021/12/22 22:39:13;;;;;;;1.10;0.93;;;;;;;19.05;49.99;96931.09;10403019;28;20034;-23
2021/12/22 22:44:14;;;;;;;4.45;1.38;;;;;;;19.03;49.92;96923.50;10405479;28;20079;-23
2021/12/22 22:49:14;;;;;;;1.40;1.00;;;;;;;19.04;49.59;96926.88;10402113;28;20441;-23
2021/12/22 22:54:14;;;;;;;3.27;1.40;;;;;;;19.07;49.64;96921.78;10404433;28;20131;-23
2021/12/22 22:59:15;;;;;;;2.67;1.13;;;;;;;19.09;49.59;96917.59;10405719;28;20296;-23
2021/12/22 23:04:15;;;;;;;3.65;2.22;;;;;;;19.07;49.57;96907.44;10410403;28;20037;-23
2021/12/22 23:09:15;;;;;;;2.65;1.58;;;;;;;19.05;49.43;96903.19;10413581;28;20032;-22
2021/12/22 23:14:16;;;;;;;1.50;1.37;;;;;;;19.05;49.51;96906.59;10409230;28;20063;-22
2021/12/22 23:19:17;;;;;;;1.65;1.20;;;;;;;19.03;49.57;96905.75;10409118;28;20025;-23
2021/12/22 23:24:18;;;;;;;1.63;1.13;;;;;;;19.00;49.51;96902.38;10410501;28;20043;-23
2021/12/22 23:29:19;;;;;;;1.25;1.10;;;;;;;19.01;49.42;96888.81;10409996;28;20033;-23
2021/12/22 23:34:19;;;;;;;2.20;1.25;;;;;;;18.99;49.45;96880.38;10409541;28;20029;-23
2021/12/22 23:45:13;;;;;;;2.05;1.00;;;;;;;19.02;49.44;96878.66;10376534;28;20300;-23
2021/12/22 23:50:13;;;;;;;2.38;1.13;;;;;;;19.02;49.32;96871.03;10408191;28;20491;-23